createdAt,value
2018-05-17T00:00:23.672Z,23.10
2018-05-17T00:01:23.904Z,25.70
2018-05-17T00:02:24.018Z,23.20
2018-05-17T00:03:24.231Z,23.70
2018-05-17T00:04:24.453Z,23.70
2018-05-17T00:05:24.674Z,26.00
2018-05-17T00:06:24.887Z,26.00
2018-05-17T00:07:25.109Z,26.30
2018-05-17T00:08:25.315Z,19.50
2018-05-17T00:09:25.528Z,24.00
2018-05-17T00:10:25.740Z,25.80
2018-05-17T00:11:25.948Z,23.40
2018-05-17T00:12:26.158Z,23.40
2018-05-17T00:13:26.373Z,23.00
2018-05-17T00:14:26.578Z,24.50
2018-05-17T00:15:26.789Z,22.30
2018-05-17T00:16:27.007Z,20.60
2018-05-17T00:17:29.200Z,24.10
2018-05-17T00:18:27.412Z,21.60
2018-05-17T00:19:27.641Z,24.00
2018-05-17T00:20:27.854Z,22.20
2018-05-17T00:21:28.069Z,22.50
2018-05-17T00:22:28.297Z,20.60
2018-05-17T00:23:28.517Z,25.40
2018-05-17T00:24:28.725Z,22.90
2018-05-17T00:25:28.938Z,23.70
2018-05-17T00:26:29.158Z,24.50
2018-05-17T00:27:31.198Z,21.50
2018-05-17T00:28:29.535Z,20.70
2018-05-17T00:29:32.711Z,23.20
2018-05-17T00:30:31.689Z,20.70
2018-05-17T00:31:30.051Z,21.20
2018-05-17T00:32:30.244Z,24.90
2018-05-17T00:33:30.448Z,21.10
2018-05-17T00:34:32.190Z,22.10
2018-05-17T00:35:30.793Z,18.20
2018-05-17T00:36:32.691Z,20.10
2018-05-17T00:37:31.038Z,21.90
2018-05-17T00:38:31.261Z,23.90
2018-05-17T00:39:31.461Z,24.00
2018-05-17T00:40:31.677Z,22.30
2018-05-17T00:41:33.704Z,23.50
2018-05-17T00:42:32.053Z,23.40
2018-05-17T00:43:32.263Z,26.80
2018-05-17T00:44:34.193Z,20.50
2018-05-17T00:45:32.657Z,19.60
2018-05-17T00:46:32.874Z,22.00
2018-05-17T00:47:33.085Z,20.80
2018-05-17T00:48:33.294Z,21.40
2018-05-17T00:49:35.191Z,21.60
2018-05-17T00:50:33.671Z,23.80
2018-05-17T00:51:35.693Z,22.10
2018-05-17T00:52:34.036Z,23.10
2018-05-17T00:53:34.261Z,23.70
2018-05-17T00:54:34.473Z,21.00
2018-05-17T00:55:34.681Z,20.70
2018-05-17T00:56:34.901Z,22.30
2018-05-17T00:57:35.120Z,22.50
2018-05-17T00:58:35.330Z,23.90
2018-05-17T00:59:35.545Z,23.70
2018-05-17T01:00:35.755Z,22.70
2018-05-17T01:01:37.703Z,22.90
2018-05-17T01:02:36.175Z,22.60
2018-05-17T01:03:40.207Z,20.80
2018-05-17T01:04:36.541Z,22.60
2018-05-17T01:05:36.776Z,23.70
2018-05-17T01:06:36.988Z,20.40
2018-05-17T01:07:37.212Z,21.20
2018-05-17T01:08:37.430Z,23.80
2018-05-17T01:09:39.196Z,21.50
2018-05-17T01:10:37.798Z,21.10
2018-05-17T01:11:38.015Z,25.30
2018-05-17T01:12:38.220Z,21.70
2018-05-17T01:13:41.197Z,22.70
2018-05-17T01:14:38.667Z,22.50
2018-05-17T01:15:38.872Z,25.70
2018-05-17T01:16:39.086Z,21.30
2018-05-17T01:17:39.294Z,26.70
2018-05-17T01:18:39.515Z,23.90
2018-05-17T01:19:41.692Z,21.50
2018-05-17T01:20:39.914Z,24.10
2018-05-17T01:21:43.691Z,22.80
2018-05-17T01:22:42.196Z,24.20
2018-05-17T01:23:40.422Z,22.50
2018-05-17T01:24:40.635Z,21.30
2018-05-17T01:25:40.853Z,22.70
2018-05-17T01:26:41.080Z,24.90
2018-05-17T01:27:41.305Z,21.40
2018-05-17T01:28:41.518Z,23.00
2018-05-17T01:29:41.730Z,22.30
2018-05-17T01:30:41.941Z,22.70
2018-05-17T01:31:42.150Z,25.00
2018-05-17T01:32:42.374Z,22.20
2018-05-17T01:33:42.579Z,25.20
2018-05-17T01:34:42.793Z,27.50
2018-05-17T01:35:44.697Z,25.60
2018-05-17T01:36:44.708Z,22.40
2018-05-17T01:37:43.289Z,26.70
2018-05-17T01:38:43.531Z,23.80
2018-05-17T01:39:43.627Z,25.10
2018-05-17T01:40:43.846Z,24.20
2018-05-17T01:41:44.053Z,23.90
2018-05-17T01:42:46.192Z,23.00
2018-05-17T01:43:44.408Z,23.20
2018-05-17T01:44:44.619Z,23.00
2018-05-17T01:45:44.842Z,21.90
2018-05-17T01:46:45.058Z,23.00
2018-05-17T01:47:45.268Z,30.10
2018-05-17T01:48:45.491Z,21.30
2018-05-17T01:49:45.701Z,20.70
2018-05-17T01:50:45.909Z,24.70
2018-05-17T01:51:46.137Z,25.50
2018-05-17T01:52:46.344Z,24.30
2018-05-17T01:53:46.559Z,22.70
2018-05-17T01:54:48.700Z,25.00
2018-05-17T01:55:46.914Z,22.70
2018-05-17T01:56:47.142Z,22.00
2018-05-17T01:57:47.367Z,22.80
2018-05-17T01:58:47.580Z,23.10
2018-05-17T01:59:47.796Z,25.90
2018-05-17T02:00:48.017Z,23.00
2018-05-17T02:01:48.236Z,24.80
2018-05-17T02:02:48.453Z,22.50
2018-05-17T02:03:48.671Z,22.30
2018-05-17T02:04:48.881Z,22.30
2018-05-17T02:05:49.097Z,22.90
2018-05-17T02:06:49.308Z,23.20
2018-05-17T02:07:49.526Z,22.00
2018-05-17T02:08:49.741Z,20.90
2018-05-17T02:09:49.954Z,22.00
2018-05-17T02:10:50.175Z,21.80
2018-05-17T02:11:50.385Z,20.00
2018-05-17T02:12:50.635Z,20.80
2018-05-17T02:13:50.838Z,22.10
2018-05-17T02:14:51.052Z,21.50
2018-05-17T02:15:51.270Z,22.90
2018-05-17T02:16:51.491Z,24.50
2018-05-17T02:17:51.700Z,22.30
2018-05-17T02:18:51.917Z,20.70
2018-05-17T02:19:52.131Z,23.10
2018-05-17T02:20:52.343Z,24.40
2018-05-17T02:21:54.194Z,22.40
2018-05-17T02:22:52.791Z,23.00
2018-05-17T02:23:54.697Z,22.60
2018-05-17T02:24:53.167Z,24.70
2018-05-17T02:25:53.381Z,23.20
2018-05-17T02:26:53.584Z,23.10
2018-05-17T02:27:53.805Z,20.90
2018-05-17T02:28:54.015Z,23.20
2018-05-17T02:29:54.227Z,20.80
2018-05-17T02:30:54.454Z,23.40
2018-05-17T02:31:54.673Z,22.70
2018-05-17T02:32:54.900Z,23.60
2018-05-17T02:33:55.120Z,25.30
2018-05-17T02:34:57.194Z,22.90
2018-05-17T02:35:55.542Z,25.10
2018-05-17T02:36:55.759Z,21.00
2018-05-17T02:37:55.969Z,22.80
2018-05-17T02:38:56.188Z,22.70
2018-05-17T02:39:56.391Z,23.70
2018-05-17T02:40:56.611Z,22.30
2018-05-17T02:41:56.825Z,22.30
2018-05-17T02:42:57.038Z,21.20
2018-05-17T02:43:59.238Z,22.70
2018-05-17T02:44:57.406Z,25.30
2018-05-17T02:45:57.623Z,28.50
2018-05-17T02:46:57.841Z,23.90
2018-05-17T02:47:58.052Z,29.40
2018-05-17T02:48:58.291Z,23.60
2018-05-17T02:50:00.219Z,26.00
2018-05-17T02:51:00.206Z,24.00
2018-05-17T02:51:58.673Z,23.60
2018-05-17T02:53:02.696Z,24.40
2018-05-17T02:53:59.039Z,24.80
2018-05-17T02:54:59.260Z,22.50
2018-05-17T02:55:59.477Z,24.50
2018-05-17T02:56:59.686Z,22.90
2018-05-17T02:57:59.903Z,27.60
2018-05-17T02:59:00.110Z,24.40
2018-05-17T03:00:00.327Z,28.10
2018-05-17T03:01:00.552Z,26.60
2018-05-17T03:02:02.696Z,26.30
2018-05-17T03:03:00.919Z,24.50
2018-05-17T03:04:01.135Z,28.00
2018-05-17T03:05:01.355Z,25.40
2018-05-17T03:06:01.580Z,25.50
2018-05-17T03:07:01.803Z,25.30
2018-05-17T03:08:02.026Z,26.10
2018-05-17T03:09:02.243Z,22.00
2018-05-17T03:10:02.454Z,23.90
2018-05-17T03:11:02.671Z,24.70
2018-05-17T03:12:02.904Z,25.20
2018-05-17T03:13:03.012Z,26.60
2018-05-17T03:14:03.234Z,27.80
2018-05-17T03:15:03.459Z,24.70
2018-05-17T03:16:03.674Z,23.10
2018-05-17T03:17:03.888Z,23.60
2018-05-17T03:18:04.097Z,24.60
2018-05-17T03:19:08.357Z,23.10
2018-05-17T03:20:04.447Z,22.80
2018-05-17T03:21:04.664Z,26.30
2018-05-17T03:22:04.876Z,25.20
2018-05-17T03:23:05.101Z,20.70
2018-05-17T03:24:05.303Z,26.30
2018-05-17T03:25:05.518Z,24.50
2018-05-17T03:26:05.731Z,23.80
2018-05-17T03:27:05.947Z,26.40
2018-05-17T03:28:06.166Z,29.80
2018-05-17T03:29:06.377Z,28.00
2018-05-17T03:30:06.604Z,23.40
2018-05-17T03:31:06.844Z,27.90
2018-05-17T03:32:07.022Z,26.90
2018-05-17T03:33:07.255Z,25.10
2018-05-17T03:34:07.352Z,24.60
2018-05-17T03:35:07.571Z,24.00
2018-05-17T03:36:07.799Z,26.80
2018-05-17T03:37:08.021Z,23.30
2018-05-17T03:38:08.246Z,25.50
2018-05-17T03:39:08.468Z,24.80
2018-05-17T03:40:08.682Z,26.30
2018-05-17T03:41:08.905Z,28.30
2018-05-17T03:42:09.121Z,27.90
2018-05-17T03:43:09.332Z,23.40
2018-05-17T03:44:09.578Z,27.80
2018-05-17T03:45:09.770Z,26.50
2018-05-17T03:46:09.981Z,26.10
2018-05-17T03:47:11.703Z,25.00
2018-05-17T03:48:10.443Z,25.00
2018-05-17T03:49:10.615Z,24.10
2018-05-17T03:50:10.827Z,24.10
2018-05-17T03:51:11.059Z,27.60
2018-05-17T03:52:11.264Z,25.30
2018-05-17T03:53:13.202Z,25.00
2018-05-17T03:54:11.540Z,26.90
2018-05-17T03:55:13.700Z,23.80
2018-05-17T03:56:11.917Z,27.20
2018-05-17T03:57:13.712Z,28.60
2018-05-17T03:58:14.205Z,23.70
2018-05-17T03:59:12.413Z,24.40
2018-05-17T04:00:12.657Z,27.50
2018-05-17T04:01:12.938Z,22.80
2018-05-17T04:02:13.056Z,24.80
2018-05-17T04:03:13.282Z,25.80
2018-05-17T04:04:13.505Z,21.90
2018-05-17T04:05:13.756Z,25.40
2018-05-17T04:06:15.712Z,25.90
2018-05-17T04:07:14.050Z,24.10
2018-05-17T04:08:14.257Z,26.50
2018-05-17T04:09:14.473Z,25.30
2018-05-17T04:10:14.681Z,27.50
2018-05-17T04:11:16.705Z,27.70
2018-05-17T04:12:15.049Z,23.40
2018-05-17T04:13:15.261Z,25.10
2018-05-17T04:14:15.476Z,23.80
2018-05-17T04:15:15.708Z,25.60
2018-05-17T04:16:15.920Z,26.60
2018-05-17T04:17:16.146Z,25.10
2018-05-17T04:18:16.329Z,28.90
2018-05-17T04:19:16.550Z,29.40
2018-05-17T04:20:16.765Z,28.60
2018-05-17T04:21:16.976Z,26.60
2018-05-17T04:22:17.201Z,26.90
2018-05-17T04:23:17.394Z,21.70
2018-05-17T04:24:17.609Z,25.40
2018-05-17T04:25:17.827Z,23.70
2018-05-17T04:26:18.039Z,21.40
2018-05-17T04:27:18.259Z,26.40
2018-05-17T04:28:20.225Z,26.70
2018-05-17T04:29:18.684Z,21.60
2018-05-17T04:30:18.879Z,22.80
2018-05-17T04:31:19.103Z,23.30
2018-05-17T04:32:19.341Z,25.40
2018-05-17T04:33:19.536Z,24.30
2018-05-17T04:34:19.759Z,23.40
2018-05-17T04:35:19.967Z,22.30
2018-05-17T04:36:20.191Z,18.90
2018-05-17T04:37:20.399Z,23.00
2018-05-17T04:38:20.608Z,27.20
2018-05-17T04:39:20.827Z,22.40
2018-05-17T04:40:21.058Z,25.50
2018-05-17T04:41:23.205Z,24.30
2018-05-17T04:42:21.419Z,19.40
2018-05-17T04:43:21.649Z,22.40
2018-05-17T04:44:21.877Z,22.50
2018-05-17T04:45:22.088Z,18.50
2018-05-17T04:46:26.204Z,21.70
2018-05-17T04:47:22.416Z,20.20
2018-05-17T04:48:24.208Z,19.10
2018-05-17T04:49:24.708Z,17.70
2018-05-17T04:50:22.920Z,22.30
2018-05-17T04:51:24.701Z,19.10
2018-05-17T04:52:23.292Z,21.00
2018-05-17T04:53:23.509Z,20.30
2018-05-17T04:54:23.731Z,21.60
2018-05-17T04:55:23.945Z,20.60
2018-05-17T04:56:24.158Z,18.80
2018-05-17T04:57:24.367Z,19.80
2018-05-17T04:58:31.211Z,19.40
2018-05-17T04:59:27.706Z,19.70
2018-05-17T05:00:24.935Z,20.60
2018-05-17T05:01:25.154Z,22.20
2018-05-17T05:02:25.370Z,19.50
2018-05-17T05:03:27.236Z,22.40
2018-05-17T05:04:25.798Z,18.20
2018-05-17T05:05:26.010Z,19.70
2018-05-17T05:06:26.229Z,21.20
2018-05-17T05:07:26.441Z,21.30
2018-05-17T05:08:26.659Z,21.50
2018-05-17T05:09:28.730Z,20.60
2018-05-17T05:10:27.036Z,21.30
2018-05-17T05:11:29.208Z,22.50
2018-05-17T05:12:27.416Z,21.10
2018-05-17T05:13:27.642Z,22.50
2018-05-17T05:14:27.864Z,21.20
2018-05-17T05:15:28.087Z,19.00
2018-05-17T05:16:28.307Z,20.50
2018-05-17T05:17:30.205Z,23.10
2018-05-17T05:18:28.666Z,24.20
2018-05-17T05:19:28.882Z,20.70
2018-05-17T05:20:32.705Z,25.10
2018-05-17T05:21:29.308Z,21.50
2018-05-17T05:22:29.504Z,18.80
2018-05-17T05:23:31.707Z,24.10
2018-05-17T05:24:29.941Z,21.90
2018-05-17T05:25:30.147Z,20.00
2018-05-17T05:26:30.360Z,19.00
2018-05-17T05:27:30.573Z,19.80
2018-05-17T05:28:30.800Z,20.90
2018-05-17T05:29:31.011Z,20.40
2018-05-17T05:30:33.203Z,21.30
2018-05-17T05:31:31.499Z,20.20
2018-05-17T05:32:33.205Z,20.60
2018-05-17T05:33:31.789Z,21.00
2018-05-17T05:34:32.003Z,22.70
2018-05-17T05:35:32.225Z,18.70
2018-05-17T05:36:32.449Z,23.70
2018-05-17T05:37:32.679Z,20.10
2018-05-17T05:38:32.890Z,20.20
2018-05-17T05:39:33.095Z,20.20
2018-05-17T05:40:33.310Z,22.90
2018-05-17T05:41:33.529Z,18.10
2018-05-17T05:42:33.741Z,19.40
2018-05-17T05:43:33.951Z,21.50
2018-05-17T05:44:34.167Z,20.30
2018-05-17T05:45:36.208Z,21.90
2018-05-17T05:46:34.550Z,19.80
2018-05-17T05:47:34.764Z,19.10
2018-05-17T05:48:36.714Z,18.90
2018-05-17T05:49:35.188Z,20.00
2018-05-17T05:50:37.215Z,18.20
2018-05-17T05:51:35.545Z,20.70
2018-05-17T05:52:35.767Z,23.00
2018-05-17T05:53:37.706Z,18.00
2018-05-17T05:54:36.171Z,20.20
2018-05-17T05:55:36.394Z,20.80
2018-05-17T05:56:36.600Z,18.50
2018-05-17T05:57:38.710Z,18.80
2018-05-17T05:58:37.055Z,16.30
2018-05-17T05:59:37.265Z,19.80
2018-05-17T06:00:37.483Z,21.20
2018-05-17T06:01:40.244Z,19.10
2018-05-17T06:02:37.818Z,17.00
2018-05-17T06:03:38.035Z,20.30
2018-05-17T06:04:38.250Z,15.90
2018-05-17T06:05:38.473Z,22.40
2018-05-17T06:06:38.694Z,18.70
2018-05-17T06:07:38.903Z,19.10
2018-05-17T06:08:39.133Z,19.70
2018-05-17T06:09:39.352Z,21.60
2018-05-17T06:10:39.565Z,19.30
2018-05-17T06:11:39.788Z,18.30
2018-05-17T06:12:40.005Z,20.80
2018-05-17T06:13:40.216Z,19.00
2018-05-17T06:14:42.207Z,23.80
2018-05-17T06:15:40.546Z,17.90
2018-05-17T06:16:40.757Z,19.10
2018-05-17T06:17:40.981Z,19.00
2018-05-17T06:18:41.192Z,19.60
2018-05-17T06:19:41.417Z,20.00
2018-05-17T06:20:41.633Z,19.70
2018-05-17T06:21:41.845Z,21.80
2018-05-17T06:22:42.065Z,19.10
2018-05-17T06:23:42.288Z,21.10
2018-05-17T06:24:42.488Z,18.20
2018-05-17T06:25:42.708Z,22.90
2018-05-17T06:26:42.919Z,25.30
2018-05-17T06:27:43.133Z,18.60
2018-05-17T06:28:43.365Z,18.50
2018-05-17T06:29:43.554Z,20.60
2018-05-17T06:30:43.800Z,20.20
2018-05-17T06:31:43.985Z,18.80
2018-05-17T06:32:44.196Z,17.40
2018-05-17T06:33:44.430Z,18.80
2018-05-17T06:34:44.642Z,21.40
2018-05-17T06:35:44.866Z,18.80
2018-05-17T06:36:45.097Z,17.50
2018-05-17T06:37:45.299Z,21.80
2018-05-17T06:38:47.209Z,20.90
2018-05-17T06:39:47.207Z,17.00
2018-05-17T06:40:45.821Z,20.30
2018-05-17T06:41:46.015Z,19.30
2018-05-17T06:42:46.236Z,18.80
2018-05-17T06:43:46.448Z,17.80
2018-05-17T06:44:46.671Z,16.60
2018-05-17T06:45:46.883Z,18.60
2018-05-17T06:46:47.090Z,17.50
2018-05-17T06:47:47.310Z,22.50
2018-05-17T06:48:49.205Z,19.30
2018-05-17T06:49:47.664Z,19.60
2018-05-17T06:50:47.884Z,17.60
2018-05-17T06:51:49.745Z,23.50
2018-05-17T06:52:48.315Z,19.80
2018-05-17T06:53:48.526Z,18.70
2018-05-17T06:54:48.743Z,18.50
2018-05-17T06:55:48.962Z,20.10
2018-05-17T06:56:49.173Z,19.20
2018-05-17T06:57:49.475Z,17.80
2018-05-17T06:58:49.624Z,19.20
2018-05-17T06:59:49.838Z,17.30
2018-05-17T07:00:50.067Z,18.20
2018-05-17T07:01:50.257Z,21.80
2018-05-17T07:02:50.483Z,18.90
2018-05-17T07:03:50.706Z,20.20
2018-05-17T07:04:53.835Z,19.00
2018-05-17T07:05:53.718Z,18.00
2018-05-17T07:06:51.224Z,20.80
2018-05-17T07:07:53.206Z,19.30
2018-05-17T07:08:51.556Z,21.30
2018-05-17T07:09:52.651Z,21.30
2018-05-17T07:10:53.456Z,19.50
2018-05-17T07:11:52.178Z,21.60
2018-05-17T07:12:52.731Z,18.60
2018-05-17T07:13:52.601Z,22.70
2018-05-17T07:14:57.040Z,20.70
2018-05-17T07:15:56.711Z,16.50
2018-05-17T07:16:53.184Z,22.00
2018-05-17T07:17:54.786Z,17.50
2018-05-17T07:18:55.216Z,20.10
2018-05-17T07:19:53.803Z,20.60
2018-05-17T07:20:54.030Z,17.70
2018-05-17T07:21:54.247Z,17.10
2018-05-17T07:22:56.248Z,18.10
2018-05-17T07:23:54.682Z,19.20
2018-05-17T07:24:55.010Z,19.00
2018-05-17T07:25:55.098Z,20.00
2018-05-17T07:26:55.332Z,16.70
2018-05-17T07:27:55.554Z,17.10
2018-05-17T07:28:55.759Z,19.40
2018-05-17T07:29:57.727Z,19.10
2018-05-17T07:30:56.178Z,16.50
2018-05-17T07:31:56.399Z,17.40
2018-05-17T07:32:56.622Z,16.40
2018-05-17T07:33:58.441Z,18.60
2018-05-17T07:34:57.042Z,14.60
2018-05-17T07:35:57.280Z,18.50
2018-05-17T07:36:57.479Z,20.30
2018-05-17T07:37:57.719Z,15.30
2018-05-17T07:38:57.941Z,16.40
2018-05-17T07:39:58.148Z,16.20
2018-05-17T07:40:58.370Z,17.20
2018-05-17T07:41:58.593Z,16.40
2018-05-17T07:42:58.799Z,15.40
2018-05-17T07:43:59.017Z,15.60
2018-05-17T07:45:01.211Z,16.20
2018-05-17T07:45:59.432Z,14.80
2018-05-17T07:46:59.685Z,17.60
2018-05-17T07:48:01.712Z,17.20
2018-05-17T07:49:00.063Z,15.10
2018-05-17T07:50:00.277Z,16.00
2018-05-17T07:51:00.502Z,16.40
2018-05-17T07:52:02.226Z,15.50
2018-05-17T07:53:00.922Z,14.70
2018-05-17T07:54:01.200Z,14.80
2018-05-17T07:55:01.388Z,15.50
2018-05-17T07:56:05.209Z,13.60
2018-05-17T07:57:01.820Z,14.10
2018-05-17T07:58:02.047Z,14.80
2018-05-17T07:59:02.279Z,11.60
2018-05-17T08:00:04.218Z,13.20
2018-05-17T08:01:02.688Z,16.10
2018-05-17T08:02:04.712Z,15.50
2018-05-17T08:03:03.098Z,13.30
2018-05-17T08:04:03.309Z,14.20
2018-05-17T08:05:03.539Z,13.50
2018-05-17T08:06:03.759Z,12.40
2018-05-17T08:07:03.981Z,15.60
2018-05-17T08:08:04.284Z,14.00
2018-05-17T08:09:04.425Z,13.90
2018-05-17T08:10:04.650Z,13.70
2018-05-17T08:11:04.900Z,17.00
2018-05-17T08:12:07.734Z,15.60
2018-05-17T08:13:07.233Z,15.00
2018-05-17T08:14:07.215Z,14.30
2018-05-17T08:15:05.697Z,15.60
2018-05-17T08:16:05.934Z,15.90
2018-05-17T08:17:06.143Z,14.90
2018-05-17T08:18:06.448Z,14.60
2018-05-17T08:19:06.601Z,15.70
2018-05-17T08:20:06.820Z,14.10
2018-05-17T08:21:08.718Z,14.50
2018-05-17T08:22:08.184Z,14.70
2018-05-17T08:23:09.219Z,13.20
2018-05-17T08:24:09.218Z,16.20
2018-05-17T08:25:09.226Z,16.10
2018-05-17T08:26:09.719Z,18.50
2018-05-17T08:27:07.941Z,18.30
2018-05-17T08:28:08.166Z,17.60
2018-05-17T08:29:10.223Z,16.20
2018-05-17T08:30:08.585Z,14.40
2018-05-17T08:31:08.789Z,17.00
2018-05-17T08:32:10.720Z,15.10
2018-05-17T08:33:09.219Z,16.50
2018-05-17T08:34:09.429Z,16.00
2018-05-17T08:35:09.660Z,14.90
2018-05-17T08:36:09.988Z,16.70
2018-05-17T08:37:16.726Z,13.90
2018-05-17T08:38:10.307Z,13.30
2018-05-17T08:39:10.539Z,15.50
2018-05-17T08:40:12.273Z,13.40
2018-05-17T08:41:12.715Z,14.60
2018-05-17T08:42:12.721Z,16.40
2018-05-17T08:43:11.195Z,17.30
2018-05-17T08:44:11.409Z,12.70
2018-05-17T08:45:11.623Z,13.40
2018-05-17T08:46:13.739Z,12.40
2018-05-17T08:47:11.965Z,14.30
2018-05-17T08:48:12.187Z,14.50
2018-05-17T08:49:14.223Z,13.50
2018-05-17T08:50:12.575Z,12.40
2018-05-17T08:51:12.792Z,13.40
2018-05-17T08:52:15.723Z,14.40
2018-05-17T08:53:13.982Z,12.60
2018-05-17T08:54:13.398Z,14.30
2018-05-17T08:55:14.582Z,14.10
2018-05-17T08:56:13.813Z,16.50
2018-05-17T08:57:15.736Z,13.00
2018-05-17T08:58:14.215Z,13.60
2018-05-17T08:59:16.219Z,15.10
2018-05-17T09:00:16.223Z,13.70
2018-05-17T09:01:14.690Z,15.70
2018-05-17T09:02:17.735Z,16.30
2018-05-17T09:03:15.081Z,13.90
2018-05-17T09:04:15.322Z,13.60
2018-05-17T09:05:15.545Z,15.70
2018-05-17T09:06:15.858Z,14.10
2018-05-17T09:07:16.001Z,15.60
2018-05-17T09:08:16.241Z,14.70
2018-05-17T09:09:16.456Z,13.50
2018-05-17T09:10:18.223Z,14.50
2018-05-17T09:11:16.820Z,14.40
2018-05-17T09:12:18.718Z,15.50
2018-05-17T09:13:17.197Z,13.50
2018-05-17T09:14:19.222Z,15.60
2018-05-17T09:15:21.237Z,15.70
2018-05-17T09:16:18.715Z,12.90
2018-05-17T09:17:17.958Z,13.30
2018-05-17T09:18:22.736Z,15.40
2018-05-17T09:19:18.202Z,14.70
2018-05-17T09:20:18.522Z,13.40
2018-05-17T09:21:18.652Z,13.50
2018-05-17T09:22:26.798Z,14.50
2018-05-17T09:23:20.075Z,14.30
2018-05-17T09:24:19.306Z,13.00
2018-05-17T09:25:21.231Z,13.60
2018-05-17T09:26:21.256Z,14.50
2018-05-17T09:27:21.767Z,11.20
2018-05-17T09:28:21.028Z,11.90
2018-05-17T09:29:21.726Z,14.30
2018-05-17T09:30:22.230Z,12.40
2018-05-17T09:31:27.462Z,13.40
2018-05-17T09:32:20.689Z,14.40
2018-05-17T09:33:24.731Z,13.30
2018-05-17T09:34:25.164Z,13.30
2018-05-17T09:35:21.278Z,12.80
2018-05-17T09:36:23.253Z,13.30
2018-05-17T09:37:23.265Z,13.40
2018-05-17T09:38:21.975Z,15.70
2018-05-17T09:39:23.721Z,14.40
2018-05-17T09:40:22.477Z,11.40
2018-05-17T09:41:24.291Z,16.10
2018-05-17T09:42:30.724Z,12.80
2018-05-17T09:43:23.079Z,12.30
2018-05-17T09:44:23.314Z,13.60
2018-05-17T09:45:27.904Z,13.00
2018-05-17T09:46:27.770Z,13.00
2018-05-17T09:47:31.830Z,14.80
2018-05-17T09:48:25.745Z,11.50
2018-05-17T09:49:24.231Z,14.70
2018-05-17T09:50:25.502Z,13.00
2018-05-17T09:51:24.718Z,13.50
2018-05-17T09:52:28.736Z,13.80
2018-05-17T09:53:26.734Z,14.60
2018-05-17T09:54:28.752Z,15.20
2018-05-17T09:55:25.378Z,13.90
2018-05-17T09:56:29.259Z,14.50
2018-05-17T09:57:27.319Z,13.80
2018-05-17T09:58:27.104Z,14.90
2018-05-17T09:59:27.732Z,12.40
2018-05-17T10:00:26.327Z,14.70
2018-05-17T10:01:28.230Z,12.80
2018-05-17T10:02:26.761Z,14.60
2018-05-17T10:03:28.724Z,14.60
2018-05-17T10:04:27.068Z,13.80
2018-05-17T10:05:28.345Z,14.90
2018-05-17T10:06:27.456Z,13.30
2018-05-17T10:07:29.251Z,15.70
2018-05-17T10:08:43.723Z,13.60
2018-05-17T10:09:29.743Z,15.90
2018-05-17T10:10:28.214Z,14.40
2018-05-17T10:11:28.445Z,11.10
2018-05-17T10:12:28.677Z,13.40
2018-05-17T10:13:30.764Z,13.50
2018-05-17T10:14:29.171Z,13.80
2018-05-17T10:15:30.332Z,14.00
2018-05-17T10:16:29.613Z,13.70
2018-05-17T10:17:29.742Z,13.40
2018-05-17T10:18:32.747Z,13.60
2018-05-17T10:19:31.105Z,14.10
2018-05-17T10:20:30.223Z,15.60
2018-05-17T10:21:30.497Z,15.20
2018-05-17T10:22:32.227Z,12.10
2018-05-17T10:23:33.746Z,14.80
2018-05-17T10:24:37.744Z,15.40
2018-05-17T10:25:32.728Z,13.20
2018-05-17T10:26:31.338Z,16.20
2018-05-17T10:27:31.590Z,13.60
2018-05-17T10:28:35.744Z,16.70
2018-05-17T10:29:32.068Z,16.40
2018-05-17T10:30:33.213Z,11.90
2018-05-17T10:31:32.441Z,14.00
2018-05-17T10:32:32.663Z,15.40
2018-05-17T10:33:32.883Z,13.90
2018-05-17T10:34:33.117Z,15.60
2018-05-17T10:35:35.232Z,13.40
2018-05-17T10:36:33.582Z,14.90
2018-05-17T10:37:33.797Z,16.30
2018-05-17T10:38:34.030Z,14.00
2018-05-17T10:39:36.227Z,16.20
2018-05-17T10:40:34.469Z,14.90
2018-05-17T10:41:34.683Z,16.40
2018-05-17T10:42:36.727Z,14.50
2018-05-17T10:43:35.079Z,14.10
2018-05-17T10:44:35.302Z,13.50
2018-05-17T10:45:39.277Z,13.80
2018-05-17T10:46:37.239Z,12.80
2018-05-17T10:47:35.827Z,13.50
2018-05-17T10:48:37.739Z,12.60
2018-05-17T10:49:36.209Z,13.00
2018-05-17T10:50:38.234Z,13.40
2018-05-17T10:51:36.601Z,12.40
2018-05-17T10:52:36.714Z,13.40
2018-05-17T10:53:40.733Z,14.20
2018-05-17T10:54:40.745Z,12.20
2018-05-17T10:55:40.815Z,12.50
2018-05-17T10:56:39.230Z,13.90
2018-05-17T10:57:37.623Z,13.60
2018-05-17T10:58:39.772Z,13.60
2018-05-17T10:59:39.804Z,12.90
2018-05-17T11:00:41.731Z,14.10
2018-05-17T11:01:39.269Z,13.60
2018-05-17T11:02:38.545Z,14.90
2018-05-17T11:03:39.775Z,12.30
2018-05-17T11:05:01.730Z,12.90
2018-05-17T11:05:40.061Z,12.40
2018-05-17T11:06:39.317Z,12.70
2018-05-17T11:07:39.424Z,12.70
2018-05-17T11:08:41.272Z,12.60
2018-05-17T11:09:47.738Z,15.00
2018-05-17T11:10:40.079Z,15.70
2018-05-17T11:11:40.334Z,13.70
2018-05-17T11:12:42.233Z,12.90
2018-05-17T11:13:42.259Z,14.20
2018-05-17T11:14:44.257Z,12.90
2018-05-17T11:15:42.732Z,13.90
2018-05-17T11:16:43.751Z,12.20
2018-05-17T11:17:42.750Z,13.80
2018-05-17T11:18:41.363Z,10.90
2018-05-17T11:19:43.251Z,11.30
2018-05-17T11:20:41.714Z,11.00
2018-05-17T11:21:41.944Z,14.70
2018-05-17T11:22:43.734Z,13.00
2018-05-17T11:23:43.328Z,13.90
2018-05-17T11:24:42.559Z,11.40
2018-05-17T11:25:43.809Z,13.60
2018-05-17T11:26:46.735Z,12.80
2018-05-17T11:27:44.733Z,12.50
2018-05-17T11:28:44.211Z,13.20
2018-05-17T11:29:43.434Z,12.90
2018-05-17T11:30:47.233Z,12.20
2018-05-17T11:31:43.817Z,14.00
2018-05-17T11:32:44.050Z,15.20
2018-05-17T11:33:44.283Z,14.00
2018-05-17T11:34:44.501Z,13.30
2018-05-17T11:35:48.284Z,13.20
2018-05-17T11:36:44.962Z,13.10
2018-05-17T11:37:45.211Z,13.80
2018-05-17T11:38:45.429Z,13.10
2018-05-17T11:39:46.645Z,13.00
2018-05-17T11:40:45.902Z,13.10
2018-05-17T11:41:47.751Z,10.20
2018-05-17T11:42:46.236Z,14.10
2018-05-17T11:43:46.495Z,12.50
2018-05-17T11:44:46.708Z,12.60
2018-05-17T11:45:49.752Z,13.90
2018-05-17T11:46:47.090Z,10.20
2018-05-17T11:47:53.268Z,12.40
2018-05-17T11:48:50.248Z,15.20
2018-05-17T11:49:47.610Z,14.10
2018-05-17T11:50:47.819Z,14.90
2018-05-17T11:51:48.053Z,13.40
2018-05-17T11:52:48.295Z,14.60
2018-05-17T11:53:48.517Z,13.90
2018-05-17T11:54:48.750Z,15.10
2018-05-17T11:55:48.954Z,15.40
2018-05-17T11:56:49.190Z,14.80
2018-05-17T11:57:49.426Z,15.40
2018-05-17T11:58:49.670Z,14.60
2018-05-17T11:59:49.864Z,16.80
2018-05-17T12:00:50.083Z,12.00
2018-05-17T12:01:50.306Z,15.20
2018-05-17T12:02:53.240Z,12.70
2018-05-17T12:03:50.720Z,14.40
2018-05-17T12:04:50.958Z,15.40
2018-05-17T12:05:52.762Z,14.60
2018-05-17T12:06:51.335Z,16.90
2018-05-17T12:07:51.565Z,14.90
2018-05-17T12:08:51.797Z,16.10
2018-05-17T12:09:52.015Z,16.10
2018-05-17T12:10:52.247Z,14.20
2018-05-17T12:11:52.474Z,15.80
2018-05-17T12:12:53.346Z,15.70
2018-05-17T12:13:54.739Z,16.10
2018-05-17T12:14:54.759Z,14.80
2018-05-17T12:15:53.113Z,15.70
2018-05-17T12:16:53.348Z,17.10
2018-05-17T12:17:53.560Z,14.60
2018-05-17T12:18:53.810Z,12.70
2018-05-17T12:19:55.740Z,15.20
2018-05-17T12:20:54.214Z,12.00
2018-05-17T12:21:54.454Z,14.50
2018-05-17T12:22:57.278Z,16.20
2018-05-17T12:23:54.875Z,13.80
2018-05-17T12:24:54.987Z,12.80
2018-05-17T12:25:56.747Z,12.80
2018-05-17T12:26:57.242Z,14.50
2018-05-17T12:27:55.612Z,13.60
2018-05-17T12:28:55.736Z,13.30
2018-05-17T12:29:59.756Z,13.10
2018-05-17T12:30:56.099Z,13.20
2018-05-17T12:31:58.337Z,12.90
2018-05-17T12:32:56.478Z,16.60
2018-05-17T12:33:58.248Z,13.60
2018-05-17T12:34:59.773Z,13.50
2018-05-17T12:35:57.011Z,11.00
2018-05-17T12:36:58.746Z,16.70
2018-05-17T12:37:57.358Z,14.20
2018-05-17T12:38:57.594Z,12.80
2018-05-17T12:39:57.813Z,12.60
2018-05-17T12:41:01.759Z,13.50
2018-05-17T12:41:59.252Z,13.60
2018-05-17T12:43:00.258Z,14.70
2018-05-17T12:44:02.243Z,14.70
2018-05-17T12:44:58.835Z,14.70
2018-05-17T12:46:00.064Z,13.00
2018-05-17T12:47:03.247Z,13.50
2018-05-17T12:47:59.502Z,13.30
2018-05-17T12:49:00.671Z,14.20
2018-05-17T12:49:59.948Z,12.80
2018-05-17T12:51:00.127Z,13.30
2018-05-17T12:52:00.391Z,15.10
2018-05-17T12:53:00.589Z,12.60
2018-05-17T12:54:00.830Z,12.10
2018-05-17T12:55:02.792Z,14.80